createdAt,value
2022-12-15T00:02:10.200Z,97335.06
2022-12-15T00:04:55.323Z,97338.44
2022-12-15T00:07:40.132Z,97341.72
2022-12-15T00:10:25.521Z,97344.59
2022-12-15T00:13:10.366Z,97335.34
2022-12-15T00:15:55.790Z,97344.34
2022-12-15T00:18:40.912Z,97341.16
2022-12-15T00:21:25.993Z,97350.00
2022-12-15T00:24:10.977Z,97351.56
2022-12-15T00:26:55.918Z,97355.81
2022-12-15T00:29:40.931Z,97359.88
2022-12-15T00:32:25.722Z,97360.38
2022-12-15T00:35:10.576Z,97361.41
2022-12-15T00:37:55.379Z,97370.28
2022-12-15T00:40:21.853Z,97370.91
2022-12-15T00:42:49.656Z,97374.19
2022-12-15T00:45:16.466Z,97370.66
2022-12-15T00:47:42.926Z,97367.97
2022-12-15T00:50:27.846Z,97377.53
2022-12-15T00:53:12.707Z,97378.16
2022-12-15T00:55:57.547Z,97371.00
2022-12-15T00:58:42.381Z,97378.25
2022-12-15T01:01:28.618Z,97388.78
2022-12-15T01:04:13.851Z,97385.41
2022-12-15T01:06:59.041Z,97393.47
2022-12-15T01:09:44.408Z,97390.00
2022-12-15T01:12:29.546Z,97390.25
2022-12-15T01:15:14.429Z,97397.00
2022-12-15T01:17:59.147Z,97408.19
2022-12-15T01:20:25.675Z,97413.31
2022-12-15T01:22:54.767Z,97418.63
2022-12-15T01:25:24.093Z,97412.91
2022-12-15T01:27:51.668Z,97423.03
2022-12-15T01:30:21.534Z,97415.56
2022-12-15T01:32:48.328Z,97425.59
2022-12-15T01:35:15.141Z,97428.66
2022-12-15T01:37:41.758Z,97425.84
2022-12-15T01:40:32.049Z,97416.09
2022-12-15T01:42:58.824Z,97412.84
2022-12-15T01:45:28.350Z,97428.19
2022-12-15T01:48:03.305Z,97426.84
2022-12-15T01:50:33.012Z,97439.34
2022-12-15T01:52:59.590Z,97438.59
2022-12-15T01:55:28.289Z,97447.56
2022-12-15T01:57:59.512Z,97442.69
2022-12-15T02:00:26.623Z,97436.22
2022-12-15T02:02:54.456Z,97431.56
2022-12-15T02:05:21.945Z,97428.81
2022-12-15T02:07:48.392Z,97425.59
2022-12-15T02:10:16.589Z,97423.59
2022-12-15T02:12:55.046Z,97425.81
2022-12-15T02:15:33.683Z,97418.41
2022-12-15T02:18:06.447Z,97428.97
2022-12-15T02:21:00.868Z,97424.00
2022-12-15T02:23:53.712Z,97435.41
2022-12-15T02:26:36.558Z,97438.56
2022-12-15T02:30:00.671Z,97445.69
2022-12-15T02:32:37.022Z,97441.81
2022-12-15T02:35:15.414Z,97431.53
2022-12-15T02:37:42.285Z,97434.09
2022-12-15T02:40:10.631Z,97430.34
2022-12-15T02:42:45.805Z,97426.84
2022-12-15T02:45:16.079Z,97435.78
2022-12-15T02:47:49.906Z,97434.91
2022-12-15T02:50:42.076Z,97435.00
2022-12-15T02:53:20.708Z,97434.78
2022-12-15T02:56:05.511Z,97455.19
2022-12-15T02:59:01.731Z,97455.94
2022-12-15T03:01:44.637Z,97456.47
2022-12-15T03:04:12.856Z,97453.94
2022-12-15T03:06:39.676Z,97455.66
2022-12-15T03:09:06.185Z,97453.94
2022-12-15T03:11:32.977Z,97453.22
2022-12-15T03:13:59.512Z,97456.28
2022-12-15T03:16:26.080Z,97462.84
2022-12-15T03:18:52.833Z,97466.44
2022-12-15T03:21:19.577Z,97474.84
2022-12-15T03:23:46.043Z,97475.91
2022-12-15T03:26:12.697Z,97476.50
2022-12-15T03:28:39.154Z,97483.06
2022-12-15T03:31:05.783Z,97482.13
2022-12-15T03:33:34.545Z,97472.91
2022-12-15T03:36:01.489Z,97479.78
2022-12-15T03:38:27.940Z,97481.06
2022-12-15T03:40:54.583Z,97482.69
2022-12-15T03:43:21.118Z,97487.50
2022-12-15T03:45:47.866Z,97485.50
2022-12-15T03:48:14.334Z,97476.75
2022-12-15T03:50:40.834Z,97482.25
2022-12-15T03:53:07.646Z,97485.84
2022-12-15T03:55:35.180Z,97475.69
2022-12-15T03:58:02.679Z,97484.56
2022-12-15T04:00:29.292Z,97495.28
2022-12-15T04:02:56.320Z,97508.00
2022-12-15T04:05:33.181Z,97503.84
2022-12-15T04:08:01.211Z,97494.22
2022-12-15T04:10:34.432Z,97505.31
2022-12-15T04:13:04.717Z,97497.28
2022-12-15T04:15:31.204Z,97499.44
2022-12-15T04:17:58.414Z,97503.22
2022-12-15T04:20:24.943Z,97508.91
2022-12-15T04:22:51.829Z,97496.00
2022-12-15T04:25:42.149Z,97499.28
2022-12-15T04:28:29.297Z,97507.09
2022-12-15T04:31:21.181Z,97510.06
2022-12-15T04:34:10.058Z,97515.94
2022-12-15T04:36:58.920Z,97521.34
2022-12-15T04:39:44.259Z,97518.28
2022-12-15T04:42:29.516Z,97510.78
2022-12-15T04:45:20.907Z,97509.19
2022-12-15T04:48:06.958Z,97498.09
2022-12-15T04:50:52.144Z,97505.19
2022-12-15T04:53:37.886Z,97506.72
2022-12-15T04:56:27.596Z,97505.59
2022-12-15T04:59:12.795Z,97501.75
2022-12-15T05:01:57.923Z,97506.63
2022-12-15T05:04:43.067Z,97511.19
2022-12-15T05:07:28.231Z,97509.44
2022-12-15T05:10:15.256Z,97513.06
2022-12-15T05:13:01.903Z,97517.38
2022-12-15T05:15:47.279Z,97508.03
2022-12-15T05:18:32.335Z,97510.00
2022-12-15T05:21:17.646Z,97518.59
2022-12-15T05:24:02.715Z,97511.03
2022-12-15T05:26:52.664Z,97525.66
2022-12-15T05:29:39.007Z,97525.16
2022-12-15T05:32:05.770Z,97519.75
2022-12-15T05:34:33.918Z,97526.94
2022-12-15T05:37:02.753Z,97527.16
2022-12-15T05:39:29.521Z,97533.41
2022-12-15T05:41:57.017Z,97543.44
2022-12-15T05:44:24.940Z,97555.81
2022-12-15T05:46:51.780Z,97558.94
2022-12-15T05:49:18.541Z,97565.00
2022-12-15T05:51:47.244Z,97559.38
2022-12-15T05:54:17.241Z,97553.75
2022-12-15T05:56:44.096Z,97558.06
2022-12-15T05:59:10.979Z,97561.97
2022-12-15T06:01:37.788Z,97560.47
2022-12-15T06:04:04.958Z,97556.56
2022-12-15T06:06:31.428Z,97565.25
2022-12-15T06:08:58.172Z,97551.84
2022-12-15T06:11:24.676Z,97540.88
2022-12-15T06:13:51.219Z,97533.53
2022-12-15T06:16:21.947Z,97541.25
2022-12-15T06:18:52.393Z,97539.28
2022-12-15T06:21:23.708Z,97543.31
2022-12-15T06:23:50.512Z,97554.41
2022-12-15T06:26:21.278Z,97555.94
2022-12-15T06:28:49.421Z,97562.84
2022-12-15T06:31:18.124Z,97577.19
2022-12-15T06:33:44.698Z,97571.94
2022-12-15T06:36:13.743Z,97590.56
2022-12-15T06:38:43.427Z,97585.00
2022-12-15T06:41:12.144Z,97585.09
2022-12-15T06:43:38.931Z,97589.03
2022-12-15T06:46:05.768Z,97594.16
2022-12-15T06:48:32.628Z,97600.34
2022-12-15T06:51:04.248Z,97594.66
2022-12-15T06:53:31.476Z,97602.34
2022-12-15T06:56:02.644Z,97597.53
2022-12-15T06:58:29.233Z,97597.66
2022-12-15T07:00:56.264Z,97592.53
2022-12-15T07:03:22.935Z,97590.59
2022-12-15T07:06:03.916Z,97595.59
2022-12-15T07:08:34.183Z,97590.03
2022-12-15T07:11:06.194Z,97584.84
2022-12-15T07:13:33.263Z,97579.91
2022-12-15T07:16:01.140Z,97569.91
2022-12-15T07:18:29.260Z,97569.84
2022-12-15T07:20:57.020Z,97581.50
2022-12-15T07:23:39.889Z,97578.09
2022-12-15T07:26:11.833Z,97589.00
2022-12-15T07:28:38.526Z,97585.31
2022-12-15T07:31:07.960Z,97592.41
2022-12-15T07:33:35.612Z,97588.97
2022-12-15T07:36:03.241Z,97579.69
2022-12-15T07:38:29.995Z,97582.44
2022-12-15T07:41:00.971Z,97587.94
2022-12-15T07:43:28.416Z,97588.25
2022-12-15T07:45:55.175Z,97585.91
2022-12-15T07:48:21.878Z,97596.31
2022-12-15T07:50:48.367Z,97590.84
2022-12-15T07:53:17.348Z,97607.59
2022-12-15T07:56:06.176Z,97609.63
2022-12-15T07:58:30.247Z,97612.38
2022-12-15T08:01:02.066Z,97601.91
2022-12-15T08:03:30.439Z,97596.72
2022-12-15T08:06:03.654Z,97602.50
2022-12-15T08:08:31.218Z,97601.47
2022-12-15T08:10:57.984Z,97594.53
2022-12-15T08:14:00.180Z,97588.91
2022-12-15T08:16:12.223Z,97598.44
2022-12-15T08:18:39.506Z,97614.53
2022-12-15T08:21:10.052Z,97630.09
2022-12-15T08:23:37.407Z,97635.00
2022-12-15T08:26:06.584Z,97640.75
2022-12-15T08:28:37.732Z,97644.19
2022-12-15T08:31:17.291Z,97641.69
2022-12-15T08:33:44.680Z,97646.59
2022-12-15T08:36:13.601Z,97647.34
2022-12-15T08:38:42.372Z,97665.00
2022-12-15T08:41:16.368Z,97664.63
2022-12-15T08:43:48.151Z,97666.28
2022-12-15T08:46:35.648Z,97677.28
2022-12-15T08:49:03.191Z,97668.91
2022-12-15T08:51:31.721Z,97674.38
2022-12-15T08:53:59.445Z,97676.34
2022-12-15T08:56:27.049Z,97681.44
2022-12-15T08:59:01.984Z,97674.66
2022-12-15T09:01:31.985Z,97693.19
2022-12-15T09:03:59.526Z,97697.66
2022-12-15T09:06:29.227Z,97705.97
2022-12-15T09:08:57.588Z,97704.41
2022-12-15T09:11:25.147Z,97693.84
2022-12-15T09:13:51.666Z,97684.34
2022-12-15T09:16:19.898Z,97683.09
2022-12-15T09:18:49.000Z,97687.44
2022-12-15T09:21:16.358Z,97685.94
2022-12-15T09:23:43.437Z,97690.63
2022-12-15T09:26:12.397Z,97678.63
2022-12-15T09:28:39.319Z,97674.66
2022-12-15T09:31:14.071Z,97682.38
2022-12-15T09:33:42.140Z,97688.13
2022-12-15T09:36:10.341Z,97700.41
2022-12-15T09:38:40.949Z,97690.28
2022-12-15T09:41:13.726Z,97704.34
2022-12-15T09:44:00.874Z,97707.19
2022-12-15T09:46:50.780Z,97705.44
2022-12-15T09:49:38.799Z,97697.84
2022-12-15T09:52:11.597Z,97705.22
2022-12-15T09:54:41.417Z,97687.09
2022-12-15T09:57:25.195Z,97692.59
2022-12-15T10:00:05.214Z,97679.19
2022-12-15T10:02:50.096Z,97675.34
2022-12-15T10:05:50.024Z,97678.38
2022-12-15T10:08:16.021Z,97683.13
2022-12-15T10:10:58.907Z,97679.56
2022-12-15T10:13:54.346Z,97674.38
2022-12-15T10:16:21.559Z,97671.59
2022-12-15T10:19:02.205Z,97674.59
2022-12-15T10:21:31.167Z,97671.31
2022-12-15T10:24:10.192Z,97667.25
2022-12-15T10:26:36.668Z,97650.16
2022-12-15T10:29:24.756Z,97639.25
2022-12-15T10:31:55.637Z,97643.66
2022-12-15T10:34:28.757Z,97636.06
2022-12-15T10:36:56.543Z,97640.47
2022-12-15T10:39:23.838Z,97647.69
2022-12-15T10:42:11.096Z,97653.56
2022-12-15T10:44:40.386Z,97656.13
2022-12-15T10:47:27.421Z,97660.28
2022-12-15T10:49:55.741Z,97655.72
2022-12-15T10:52:40.340Z,97655.19
2022-12-15T10:55:31.856Z,97660.97
2022-12-15T10:58:00.856Z,97657.16
2022-12-15T11:00:31.819Z,97650.41
2022-12-15T11:02:59.196Z,97655.16
2022-12-15T11:05:26.816Z,97643.47
2022-12-15T11:08:15.010Z,97628.06
2022-12-15T11:11:12.359Z,97628.22
2022-12-15T11:13:39.831Z,97633.47
2022-12-15T11:16:18.841Z,97622.66
2022-12-15T11:18:51.226Z,97625.81
2022-12-15T11:21:26.013Z,97611.38
2022-12-15T11:24:07.105Z,97606.19
2022-12-15T11:29:54.043Z,97604.41
2022-12-15T11:32:24.543Z,97594.72
2022-12-15T11:34:51.147Z,97593.06
2022-12-15T11:37:36.232Z,97587.69
2022-12-15T11:40:21.887Z,97592.03
2022-12-15T11:42:48.805Z,97589.19
2022-12-15T11:45:41.618Z,97590.13
2022-12-15T11:48:37.132Z,97588.72
2022-12-15T11:51:14.408Z,97582.00
2022-12-15T11:53:54.290Z,97574.97
2022-12-15T11:56:50.654Z,97570.38
2022-12-15T11:59:47.974Z,97556.75
2022-12-15T12:02:49.659Z,97541.13
2022-12-15T12:05:30.003Z,97541.25
2022-12-15T12:08:11.672Z,97540.88
2022-12-15T12:11:02.997Z,97539.94
2022-12-15T12:13:50.346Z,97529.69
2022-12-15T12:16:36.375Z,97533.50
2022-12-15T12:19:09.396Z,97526.69
2022-12-15T12:21:50.794Z,97525.50
2022-12-15T12:24:30.765Z,97519.66
2022-12-15T12:27:02.098Z,97521.53
2022-12-15T12:29:31.501Z,97524.94
2022-12-15T12:32:05.882Z,97509.19
2022-12-15T12:35:30.815Z,97501.47
2022-12-15T12:38:01.170Z,97495.25
2022-12-15T12:41:07.362Z,97498.75
2022-12-15T12:43:40.773Z,97499.06
2022-12-15T12:46:19.505Z,97504.41
2022-12-15T12:48:55.993Z,97506.16
2022-12-15T12:51:27.587Z,97503.59
2022-12-15T12:53:55.555Z,97496.25
2022-12-15T12:56:41.498Z,97486.31
2022-12-15T12:59:29.820Z,97484.84
2022-12-15T13:02:14.701Z,97488.53
2022-12-15T13:04:44.347Z,97485.94
2022-12-15T13:07:31.977Z,97469.84
2022-12-15T13:10:09.113Z,97463.59
2022-12-15T13:12:53.309Z,97473.00
2022-12-15T13:15:41.602Z,97468.22
2022-12-15T13:18:15.717Z,97470.28
2022-12-15T13:20:44.042Z,97464.94
2022-12-15T13:23:16.254Z,97462.66
2022-12-15T13:25:48.540Z,97454.47
2022-12-15T13:28:24.551Z,97463.72
2022-12-15T13:31:19.176Z,97463.56
2022-12-15T13:33:54.765Z,97452.16
2022-12-15T13:36:39.581Z,97464.31
2022-12-15T13:39:14.835Z,97449.09
2022-12-15T13:44:54.941Z,97456.09
2022-12-15T13:47:30.805Z,97457.28
2022-12-15T13:50:13.400Z,97449.22
2022-12-15T13:53:17.941Z,97455.06
2022-12-15T13:55:51.081Z,97451.72
2022-12-15T13:58:19.273Z,97457.84
2022-12-15T14:00:55.269Z,97458.34
2022-12-15T14:03:22.915Z,97464.66
2022-12-15T14:05:58.803Z,97452.78
2022-12-15T14:08:28.445Z,97454.28
2022-12-15T14:10:58.027Z,97469.84
2022-12-15T14:13:35.141Z,97472.22
2022-12-15T14:16:20.121Z,97475.81
2022-12-15T14:19:04.940Z,97481.19
2022-12-15T14:21:31.409Z,97484.91
2022-12-15T14:24:28.846Z,97484.44
2022-12-15T14:26:44.418Z,97479.63
2022-12-15T14:29:12.992Z,97460.91
2022-12-15T14:31:40.554Z,97457.56
2022-12-15T14:34:14.282Z,97452.84
2022-12-15T14:36:43.034Z,97453.09
2022-12-15T14:39:24.217Z,97469.88
2022-12-15T14:41:52.428Z,97460.72
2022-12-15T14:44:31.505Z,97460.47
2022-12-15T14:47:18.872Z,97469.84
2022-12-15T14:49:46.250Z,97469.94
2022-12-15T14:52:36.679Z,97474.84
2022-12-15T14:55:27.325Z,97482.63
2022-12-15T14:57:54.524Z,97477.53
2022-12-15T15:00:29.050Z,97482.50
2022-12-15T15:03:09.172Z,97607.66
2022-12-15T15:03:18.268Z,97477.03
2022-12-15T15:05:47.737Z,97484.00
2022-12-15T15:08:19.597Z,97483.53
2022-12-15T15:10:46.357Z,97487.28
2022-12-15T15:13:22.921Z,97493.00
2022-12-15T15:16:00.805Z,97491.44
2022-12-15T15:18:29.408Z,97492.38
2022-12-15T15:21:03.279Z,97484.03
2022-12-15T15:23:30.504Z,97478.41
2022-12-15T15:26:07.379Z,97483.00
2022-12-15T15:28:42.195Z,97484.00
2022-12-15T15:31:41.018Z,97480.63
2022-12-15T15:34:09.626Z,97484.59
2022-12-15T15:36:38.551Z,97485.44
2022-12-15T15:39:13.819Z,97494.66
2022-12-15T15:41:40.781Z,97487.53
2022-12-15T15:44:15.096Z,97473.41
2022-12-15T15:46:48.303Z,97472.69
2022-12-15T15:49:18.875Z,97472.22
2022-12-15T15:51:45.471Z,97475.38
2022-12-15T15:54:15.341Z,97479.81
2022-12-15T15:56:41.860Z,97471.50
2022-12-15T15:59:13.799Z,97469.31
2022-12-15T16:01:40.758Z,97467.47
2022-12-15T16:04:07.371Z,97464.69
2022-12-15T16:06:35.125Z,97458.81
2022-12-15T16:09:02.019Z,97470.75
2022-12-15T16:11:33.037Z,97472.63
2022-12-15T16:14:01.416Z,97481.72
2022-12-15T16:16:31.841Z,97464.00
2022-12-15T16:18:58.748Z,97474.97
2022-12-15T16:21:27.664Z,97480.47
2022-12-15T16:23:55.588Z,97479.47
2022-12-15T16:26:31.163Z,97478.75
2022-12-15T16:28:58.088Z,97482.31
2022-12-15T16:31:35.451Z,97478.47
2022-12-15T16:34:06.741Z,97489.00
2022-12-15T16:36:33.438Z,97491.66
2022-12-15T16:38:59.914Z,97496.34
2022-12-15T16:41:27.680Z,97486.19
2022-12-15T16:43:54.140Z,97497.63
2022-12-15T16:46:20.731Z,97492.38
2022-12-15T16:48:47.356Z,97495.31
2022-12-15T16:51:34.388Z,97496.59
2022-12-15T16:54:01.186Z,97499.06
2022-12-15T16:56:27.670Z,97502.84
2022-12-15T16:59:15.440Z,97500.81
2022-12-15T17:01:41.438Z,97499.03
2022-12-15T17:04:08.026Z,97502.44
2022-12-15T17:06:34.919Z,97495.72
2022-12-15T17:09:01.727Z,97496.97
2022-12-15T17:11:29.183Z,97503.84
2022-12-15T17:14:00.740Z,97504.59
2022-12-15T17:16:28.503Z,97503.50
2022-12-15T17:18:54.997Z,97501.13
2022-12-15T17:21:27.853Z,97496.91
2022-12-15T17:24:03.688Z,97491.19
2022-12-15T17:26:35.324Z,97486.91
2022-12-15T17:29:23.207Z,97489.88
2022-12-15T17:31:50.056Z,97488.88
2022-12-15T17:34:27.811Z,97480.53
2022-12-15T17:36:55.322Z,97472.59
2022-12-15T17:39:22.393Z,97464.78
2022-12-15T17:41:59.863Z,97455.88
2022-12-15T17:44:36.227Z,97464.94
2022-12-15T17:47:06.415Z,97462.34
2022-12-15T17:49:36.627Z,97463.31
2022-12-15T17:52:27.783Z,97458.78
2022-12-15T17:54:54.504Z,97458.44
2022-12-15T17:57:20.984Z,97458.97
2022-12-15T17:59:48.069Z,97458.94
2022-12-15T18:02:15.082Z,97457.34
2022-12-15T18:04:42.395Z,97458.34
2022-12-15T18:07:18.412Z,97453.72
2022-12-15T18:09:45.327Z,97453.28
2022-12-15T18:12:20.879Z,97446.28
2022-12-15T18:14:47.741Z,97454.00
2022-12-15T18:17:14.719Z,97449.56
2022-12-15T18:19:41.238Z,97455.66
2022-12-15T18:22:21.927Z,97440.72
2022-12-15T18:24:49.598Z,97440.47
2022-12-15T18:27:21.583Z,97448.47
2022-12-15T18:29:48.129Z,97440.03
2022-12-15T18:32:15.257Z,97448.91
2022-12-15T18:34:41.729Z,97446.91
2022-12-15T18:37:19.999Z,97448.53
2022-12-15T18:39:46.677Z,97449.34
2022-12-15T18:42:18.930Z,97449.41
2022-12-15T18:44:48.471Z,97443.69
2022-12-15T18:47:21.387Z,97453.38
2022-12-15T18:49:48.010Z,97440.31
2022-12-15T18:52:21.431Z,97443.94
2022-12-15T18:54:49.740Z,97445.31
2022-12-15T18:57:26.910Z,97446.13
2022-12-15T18:59:56.358Z,97455.63
2022-12-15T19:02:22.937Z,97443.41
2022-12-15T19:04:49.475Z,97436.00
2022-12-15T19:07:16.247Z,97435.59
2022-12-15T19:09:42.824Z,97435.84
2022-12-15T19:12:17.907Z,97441.41
2022-12-15T19:14:55.153Z,97444.31
2022-12-15T19:17:42.147Z,97441.22
2022-12-15T19:20:37.164Z,97435.69
2022-12-15T19:23:05.260Z,97437.56
2022-12-15T19:25:32.649Z,97431.63
2022-12-15T19:28:00.312Z,97421.91
2022-12-15T19:30:29.920Z,97418.19
2022-12-15T19:32:56.871Z,97418.25
2022-12-15T19:35:24.671Z,97417.84
2022-12-15T19:37:54.954Z,97421.47
2022-12-15T19:40:27.458Z,97412.13
2022-12-15T19:42:55.457Z,97418.34
2022-12-15T19:45:28.284Z,97422.09
2022-12-15T19:47:55.385Z,97429.34
2022-12-15T19:50:36.597Z,97417.50
2022-12-15T19:53:10.276Z,97420.94
2022-12-15T19:55:36.874Z,97428.56
2022-12-15T19:58:26.907Z,97429.94
2022-12-15T20:00:56.241Z,97439.41
2022-12-15T20:03:23.498Z,97447.72
2022-12-15T20:05:51.855Z,97443.06
2022-12-15T20:08:25.348Z,97454.03
2022-12-15T20:10:53.846Z,97458.50
2022-12-15T20:13:22.287Z,97461.66
2022-12-15T20:15:48.733Z,97454.50
2022-12-15T20:18:15.360Z,97445.59
2022-12-15T20:20:45.513Z,97455.19
2022-12-15T20:23:23.507Z,97451.31
2022-12-15T20:25:49.968Z,97444.19
2022-12-15T20:28:22.291Z,97439.84
2022-12-15T20:30:48.986Z,97438.09
2022-12-15T20:33:15.887Z,97444.69
2022-12-15T20:35:44.653Z,97443.38
2022-12-15T20:38:25.865Z,97442.22
2022-12-15T20:40:52.983Z,97443.72
2022-12-15T20:43:21.169Z,97441.53
2022-12-15T20:45:54.749Z,97440.13
2022-12-15T20:48:24.768Z,97439.94
2022-12-15T20:50:51.530Z,97445.03
2022-12-15T20:53:23.789Z,97438.75
2022-12-15T20:55:52.513Z,97453.59
2022-12-15T20:58:19.555Z,97448.69
2022-12-15T21:00:48.395Z,97449.00
2022-12-15T21:03:25.811Z,97456.16
2022-12-15T21:05:55.796Z,97456.38
2022-12-15T21:08:29.578Z,97461.91
2022-12-15T21:11:01.184Z,97459.06
2022-12-15T21:13:31.331Z,97461.91
2022-12-15T21:15:58.172Z,97463.44
2022-12-15T21:21:18.786Z,97461.81
2022-12-15T21:23:45.659Z,97459.59
2022-12-15T21:26:13.297Z,97456.56
2022-12-15T21:28:39.803Z,97456.16
2022-12-15T21:31:06.305Z,97455.03
2022-12-15T21:33:32.965Z,97452.53
2022-12-15T21:36:00.554Z,97456.66
2022-12-15T21:38:32.330Z,97465.88
2022-12-15T21:41:01.893Z,97467.50
2022-12-15T21:43:31.679Z,97464.13
2022-12-15T21:46:00.279Z,97466.78
2022-12-15T21:48:58.836Z,97467.16
2022-12-15T21:51:34.388Z,97465.53
2022-12-15T21:54:01.551Z,97469.84
2022-12-15T21:56:28.196Z,97468.06
2022-12-15T21:58:56.270Z,97474.06
2022-12-15T22:01:30.767Z,97477.31
2022-12-15T22:04:01.108Z,97478.84
2022-12-15T22:06:29.535Z,97485.84
2022-12-15T22:09:00.327Z,97486.44
2022-12-15T22:11:31.609Z,97497.13
2022-12-15T22:14:02.668Z,97486.69
2022-12-15T22:16:29.808Z,97488.84
2022-12-15T22:18:58.257Z,97482.84
2022-12-15T22:21:25.195Z,97489.00
2022-12-15T22:23:52.248Z,97489.16
2022-12-15T22:26:24.450Z,97486.38
2022-12-15T22:28:51.264Z,97481.03
2022-12-15T22:31:18.720Z,97476.06
2022-12-15T22:33:45.256Z,97475.63
2022-12-15T22:36:11.973Z,97484.38
2022-12-15T22:38:38.563Z,97477.81
2022-12-15T22:41:06.723Z,97478.06
2022-12-15T22:43:37.950Z,97470.34
2022-12-15T22:46:07.645Z,97474.06
2022-12-15T22:48:37.007Z,97485.47
2022-12-15T22:51:05.579Z,97483.53
2022-12-15T22:53:34.859Z,97475.16
2022-12-15T22:56:05.972Z,97472.00
2022-12-15T22:58:36.646Z,97478.88
2022-12-15T23:01:06.480Z,97486.88
2022-12-15T23:03:33.664Z,97477.59
2022-12-15T23:06:01.987Z,97467.09
2022-12-15T23:08:29.906Z,97472.09
2022-12-15T23:11:14.967Z,97464.69
2022-12-15T23:13:41.502Z,97467.03
2022-12-15T23:16:23.385Z,97462.25
2022-12-15T23:18:55.169Z,97460.31
2022-12-15T23:21:23.885Z,97454.66
2022-12-15T23:23:50.511Z,97460.00
2022-12-15T23:26:18.611Z,97460.38
2022-12-15T23:28:45.474Z,97459.44
2022-12-15T23:31:12.150Z,97465.22
2022-12-15T23:33:38.872Z,97464.22
2022-12-15T23:36:06.204Z,97458.97
2022-12-15T23:38:32.708Z,97461.13
2022-12-15T23:40:59.218Z,97464.28
2022-12-15T23:43:27.774Z,97461.63
2022-12-15T23:46:00.237Z,97467.84
2022-12-15T23:48:35.862Z,97462.84
2022-12-15T23:51:06.981Z,97466.38
2022-12-15T23:53:34.491Z,97462.00
2022-12-15T23:56:13.383Z,97464.63
2022-12-15T23:58:41.666Z,97461.31
